createdAt,value
2023-08-30T00:01:10.129Z,13.45
2023-08-30T00:03:37.562Z,12.70
2023-08-30T00:06:05.593Z,10.07
2023-08-30T00:08:33.458Z,10.63
2023-08-30T00:11:00.764Z,11.00
2023-08-30T00:13:27.942Z,12.40
2023-08-30T00:15:56.020Z,13.00
2023-08-30T00:18:23.224Z,11.52
2023-08-30T00:20:50.357Z,10.80
2023-08-30T00:23:18.039Z,11.05
2023-08-30T00:25:45.069Z,13.38
2023-08-30T00:28:12.405Z,13.20
2023-08-30T00:30:39.783Z,11.55
2023-08-30T00:33:07.755Z,12.02
2023-08-30T00:35:35.245Z,13.98
2023-08-30T00:38:02.364Z,14.82
2023-08-30T00:40:29.907Z,17.80
2023-08-30T00:42:57.678Z,18.20
2023-08-30T00:45:25.130Z,22.88
2023-08-30T00:47:52.229Z,23.50
2023-08-30T00:50:19.397Z,18.35
2023-08-30T00:52:46.484Z,19.08
2023-08-30T00:55:13.619Z,21.75
2023-08-30T00:57:40.694Z,18.80
2023-08-30T01:00:09.530Z,24.15
2023-08-30T01:02:37.371Z,20.33
2023-08-30T01:05:04.919Z,22.55
2023-08-30T01:07:32.295Z,22.02
2023-08-30T01:09:59.742Z,21.13
2023-08-30T01:12:33.064Z,31.80
2023-08-30T01:15:10.444Z,25.17
2023-08-30T01:17:37.674Z,23.83
2023-08-30T01:20:18.330Z,26.50
2023-08-30T01:23:07.557Z,23.15
2023-08-30T01:25:43.607Z,24.15
2023-08-30T01:28:10.939Z,28.38
2023-08-30T01:30:39.485Z,26.65
2023-08-30T01:33:06.652Z,24.60
2023-08-30T01:35:34.232Z,28.77
2023-08-30T01:38:01.729Z,28.38
2023-08-30T01:40:29.978Z,29.17
2023-08-30T01:42:56.998Z,28.48
2023-08-30T01:45:24.244Z,30.92
2023-08-30T01:47:53.236Z,28.52
2023-08-30T01:50:20.828Z,28.73
2023-08-30T01:52:48.092Z,34.88
2023-08-30T01:55:15.270Z,30.77
2023-08-30T01:57:42.322Z,29.08
2023-08-30T02:00:09.962Z,37.47
2023-08-30T02:02:43.976Z,33.53
2023-08-30T02:05:13.475Z,32.75
2023-08-30T02:07:55.130Z,31.08
2023-08-30T02:10:35.064Z,34.20
2023-08-30T02:13:02.541Z,32.97
2023-08-30T02:15:29.638Z,33.05
2023-08-30T02:17:56.946Z,29.75
2023-08-30T02:20:24.338Z,30.35
2023-08-30T02:22:51.394Z,31.85
2023-08-30T02:25:18.560Z,36.42
2023-08-30T02:27:46.435Z,32.92
2023-08-30T02:30:13.451Z,31.27
2023-08-30T02:32:40.557Z,33.17
2023-08-30T02:35:08.019Z,31.52
2023-08-30T02:37:35.140Z,27.27
2023-08-30T02:40:02.248Z,25.90
2023-08-30T02:42:29.861Z,33.25
2023-08-30T02:44:56.999Z,22.88
2023-08-30T02:47:24.921Z,21.85
2023-08-30T02:49:51.991Z,28.10
2023-08-30T02:52:19.146Z,26.10
2023-08-30T02:54:46.228Z,26.08
2023-08-30T02:57:13.393Z,26.23
2023-08-30T02:59:40.590Z,35.80
2023-08-30T03:02:07.790Z,33.13
2023-08-30T03:04:35.496Z,37.38
2023-08-30T03:07:02.804Z,37.58
2023-08-30T03:09:30.440Z,35.92
2023-08-30T03:11:57.620Z,35.17
2023-08-30T03:14:24.826Z,34.38
2023-08-30T03:16:52.250Z,32.00
2023-08-30T03:19:19.404Z,35.90
2023-08-30T03:21:46.564Z,34.95
2023-08-30T03:24:15.197Z,33.00
2023-08-30T03:26:44.049Z,32.78
2023-08-30T03:29:12.342Z,37.63
2023-08-30T03:31:39.422Z,33.53
2023-08-30T03:34:06.621Z,29.65
2023-08-30T03:36:33.773Z,32.90
2023-08-30T03:39:00.994Z,27.60
2023-08-30T03:41:28.064Z,23.55
2023-08-30T03:43:55.526Z,26.55
2023-08-30T03:46:22.679Z,27.83
2023-08-30T03:48:49.795Z,25.45
2023-08-30T03:51:18.103Z,26.63
2023-08-30T03:53:45.983Z,27.52
2023-08-30T03:56:13.878Z,24.63
2023-08-30T03:58:40.920Z,21.05
2023-08-30T04:01:08.141Z,23.17
2023-08-30T04:03:35.602Z,19.70
2023-08-30T04:06:03.051Z,22.30
2023-08-30T04:08:30.414Z,24.42
2023-08-30T04:10:57.471Z,23.73
2023-08-30T04:13:25.129Z,27.02
2023-08-30T04:15:54.030Z,37.92
2023-08-30T04:18:21.233Z,33.67
2023-08-30T04:20:48.589Z,41.05
2023-08-30T04:23:15.679Z,41.00
2023-08-30T04:25:43.297Z,42.10
2023-08-30T04:28:11.561Z,37.05
2023-08-30T04:30:39.816Z,41.30
2023-08-30T04:33:07.265Z,30.25
2023-08-30T04:35:34.638Z,34.90
2023-08-30T04:38:02.260Z,38.08
2023-08-30T04:40:30.453Z,49.97
2023-08-30T04:42:58.849Z,49.08
2023-08-30T04:45:26.066Z,46.60
2023-08-30T04:47:54.061Z,50.20
2023-08-30T04:50:21.950Z,45.47
2023-08-30T04:52:49.116Z,50.47
2023-08-30T04:55:16.138Z,46.90
2023-08-30T04:57:46.161Z,48.90
2023-08-30T05:00:16.573Z,49.53
2023-08-30T05:02:44.926Z,46.42
2023-08-30T05:05:12.482Z,40.05
2023-08-30T05:07:39.782Z,38.75
2023-08-30T05:10:07.625Z,42.75
2023-08-30T05:12:35.582Z,38.92
2023-08-30T05:15:02.761Z,36.58
2023-08-30T05:17:34.349Z,35.65
2023-08-30T05:20:01.881Z,36.28
2023-08-30T05:22:31.058Z,40.05
2023-08-30T05:24:58.392Z,33.92
2023-08-30T05:27:26.277Z,33.20
2023-08-30T05:29:54.482Z,30.42
2023-08-30T05:32:22.161Z,38.67
2023-08-30T05:35:07.826Z,36.13
2023-08-30T05:37:58.017Z,34.17
2023-08-30T05:40:45.926Z,33.88
2023-08-30T05:43:13.141Z,32.70
2023-08-30T05:45:40.401Z,33.88
2023-08-30T05:48:09.437Z,39.17
2023-08-30T05:50:36.843Z,31.48
2023-08-30T05:53:05.198Z,35.08
2023-08-30T05:55:33.538Z,29.25
2023-08-30T05:58:00.789Z,31.52
2023-08-30T06:00:27.928Z,32.60
2023-08-30T06:02:55.144Z,32.08
2023-08-30T06:05:22.349Z,34.25
2023-08-30T06:07:49.455Z,35.33
2023-08-30T06:10:16.621Z,30.55
2023-08-30T06:12:43.696Z,29.23
2023-08-30T06:15:10.953Z,27.25
2023-08-30T06:17:38.057Z,25.63
2023-08-30T06:20:05.861Z,29.58
2023-08-30T06:22:33.117Z,25.10
2023-08-30T06:25:00.236Z,22.90
2023-08-30T06:27:27.317Z,28.50
2023-08-30T06:29:54.478Z,22.08
2023-08-30T06:32:21.969Z,22.92
2023-08-30T06:34:49.111Z,22.40
2023-08-30T06:37:16.292Z,23.40
2023-08-30T06:39:43.478Z,21.50
2023-08-30T06:42:10.631Z,27.73
2023-08-30T06:44:41.770Z,17.17
2023-08-30T06:47:08.951Z,16.08
2023-08-30T06:49:36.130Z,18.10
2023-08-30T06:52:04.906Z,19.48
2023-08-30T06:54:35.124Z,16.60
2023-08-30T06:57:02.407Z,20.80
2023-08-30T06:59:29.639Z,25.42
2023-08-30T07:01:56.698Z,18.05
2023-08-30T07:04:23.872Z,16.90
2023-08-30T07:06:51.324Z,16.95
2023-08-30T07:09:19.029Z,17.35
2023-08-30T07:11:47.173Z,18.50
2023-08-30T07:14:15.519Z,41.45
2023-08-30T07:16:42.685Z,22.10
2023-08-30T07:19:11.052Z,19.85
2023-08-30T07:21:39.950Z,18.95
2023-08-30T07:24:08.279Z,15.63
2023-08-30T07:26:36.283Z,15.48
2023-08-30T07:29:06.024Z,16.83
2023-08-30T07:31:33.952Z,18.35
2023-08-30T07:34:01.141Z,19.38
2023-08-30T07:36:44.860Z,18.98
2023-08-30T07:41:41.264Z,17.45
2023-08-30T07:44:08.560Z,16.88
2023-08-30T07:46:35.779Z,18.05
2023-08-30T07:49:03.799Z,19.55
2023-08-30T07:51:31.074Z,18.52
2023-08-30T07:53:58.162Z,17.23
2023-08-30T07:56:25.412Z,27.85
2023-08-30T07:58:52.366Z,22.65
2023-08-30T08:01:19.481Z,57.60
2023-08-30T08:04:00.236Z,24.27
2023-08-30T08:06:32.200Z,17.58
2023-08-30T08:08:59.583Z,17.63
2023-08-30T08:11:27.111Z,16.20
2023-08-30T08:13:54.434Z,17.23
2023-08-30T08:16:21.889Z,16.20
2023-08-30T08:18:48.997Z,14.05
2023-08-30T08:21:16.077Z,17.02
2023-08-30T08:23:43.117Z,15.68
2023-08-30T08:26:10.239Z,20.23
2023-08-30T08:28:37.367Z,17.58
2023-08-30T08:31:04.450Z,15.13
2023-08-30T08:33:31.724Z,13.38
2023-08-30T08:35:58.902Z,14.48
2023-08-30T08:38:26.014Z,12.50
2023-08-30T08:40:54.632Z,14.43
2023-08-30T08:43:21.650Z,13.43
2023-08-30T08:45:49.344Z,12.50
2023-08-30T08:48:16.574Z,15.55
2023-08-30T08:50:44.130Z,13.65
2023-08-30T08:53:11.208Z,12.98
2023-08-30T08:55:38.354Z,15.23
2023-08-30T08:58:05.508Z,14.75
2023-08-30T09:00:32.852Z,13.48
2023-08-30T09:03:00.187Z,13.02
2023-08-30T09:05:28.035Z,12.75
2023-08-30T09:07:55.879Z,11.02
2023-08-30T09:10:23.065Z,10.95
2023-08-30T09:12:50.259Z,12.45
2023-08-30T09:15:18.591Z,12.10
2023-08-30T09:17:48.256Z,10.82
2023-08-30T09:20:15.812Z,11.95
2023-08-30T09:22:43.523Z,11.63
2023-08-30T09:25:12.402Z,12.60
2023-08-30T09:27:42.530Z,12.20
2023-08-30T09:30:11.894Z,9.13
2023-08-30T09:32:46.418Z,8.35
2023-08-30T09:35:13.421Z,9.52
2023-08-30T09:37:40.479Z,8.52
2023-08-30T09:40:08.034Z,9.10
2023-08-30T09:42:35.031Z,8.10
2023-08-30T09:45:02.567Z,9.25
2023-08-30T09:47:32.076Z,9.30
2023-08-30T09:49:59.185Z,10.88
2023-08-30T09:52:26.900Z,11.30
2023-08-30T09:54:54.041Z,10.07
2023-08-30T09:57:22.589Z,8.02
2023-08-30T09:59:49.695Z,7.30
2023-08-30T10:02:16.815Z,9.48
2023-08-30T10:04:44.123Z,9.20
2023-08-30T10:07:11.324Z,8.75
2023-08-30T10:09:45.825Z,10.02
2023-08-30T10:12:21.336Z,8.57
2023-08-30T10:14:48.457Z,11.25
2023-08-30T10:17:15.724Z,8.38
2023-08-30T10:19:42.799Z,8.93
2023-08-30T10:22:10.277Z,8.27
2023-08-30T10:27:33.112Z,10.23
2023-08-30T10:30:04.814Z,11.43
2023-08-30T10:32:33.177Z,8.65
2023-08-30T10:35:02.357Z,7.93
2023-08-30T10:37:31.586Z,8.77
2023-08-30T10:40:04.827Z,9.80
2023-08-30T10:42:32.692Z,8.13
2023-08-30T10:47:39.194Z,8.85
2023-08-30T10:50:13.449Z,7.45
2023-08-30T10:52:40.951Z,8.25
2023-08-30T10:55:15.442Z,7.13
2023-08-30T10:57:43.693Z,7.65
2023-08-30T11:00:19.446Z,6.25
2023-08-30T11:02:48.019Z,7.00
2023-08-30T11:05:16.635Z,6.15
2023-08-30T11:07:44.604Z,8.38
2023-08-30T11:10:13.109Z,8.50
2023-08-30T11:12:46.375Z,7.88
2023-08-30T11:15:15.621Z,7.13
2023-08-30T11:17:43.422Z,8.15
2023-08-30T11:20:21.412Z,6.75
2023-08-30T11:22:49.994Z,6.13
2023-08-30T11:25:18.064Z,5.90
2023-08-30T11:27:47.347Z,5.32
2023-08-30T11:30:14.876Z,14.32
2023-08-30T11:32:46.694Z,6.63
2023-08-30T11:35:14.225Z,10.07
2023-08-30T11:37:42.536Z,13.02
2023-08-30T11:40:10.268Z,7.20
2023-08-30T11:42:37.293Z,9.23
2023-08-30T11:45:05.533Z,9.20
2023-08-30T11:47:34.216Z,6.50
2023-08-30T11:50:01.785Z,7.40
2023-08-30T11:52:34.086Z,5.70
2023-08-30T11:55:01.354Z,6.05
2023-08-30T11:57:28.972Z,6.00
2023-08-30T11:59:56.052Z,6.38
2023-08-30T12:02:23.176Z,5.95
2023-08-30T12:04:50.431Z,6.38
2023-08-30T12:07:24.801Z,12.63
2023-08-30T12:09:52.409Z,7.20
2023-08-30T12:12:19.649Z,6.30
2023-08-30T12:14:46.723Z,6.97
2023-08-30T12:17:14.087Z,6.32
2023-08-30T12:19:41.473Z,5.70
2023-08-30T12:22:11.713Z,6.50
2023-08-30T12:24:47.209Z,7.15
2023-08-30T12:29:41.557Z,5.78
2023-08-30T12:32:08.977Z,6.60
2023-08-30T12:34:36.652Z,5.85
2023-08-30T12:37:05.835Z,6.75
2023-08-30T12:39:33.132Z,6.95
2023-08-30T12:42:00.690Z,5.75
2023-08-30T12:44:27.903Z,6.50
2023-08-30T12:46:54.923Z,6.75
2023-08-30T12:49:22.243Z,6.13
2023-08-30T12:51:49.290Z,5.95
2023-08-30T12:54:16.450Z,4.75
2023-08-30T12:56:43.509Z,5.47
2023-08-30T12:59:10.633Z,5.40
2023-08-30T13:01:40.178Z,5.25
2023-08-30T13:04:08.936Z,4.70
2023-08-30T13:06:36.232Z,4.30
2023-08-30T13:09:04.604Z,5.20
2023-08-30T13:11:33.685Z,6.05
2023-08-30T13:14:01.139Z,4.75
2023-08-30T13:16:28.330Z,4.90
2023-08-30T13:18:55.536Z,5.95
2023-08-30T13:21:35.229Z,5.15
2023-08-30T13:24:08.008Z,5.40
2023-08-30T13:26:35.205Z,4.90
2023-08-30T13:29:03.640Z,5.78
2023-08-30T13:31:31.068Z,5.30
2023-08-30T13:33:59.364Z,5.72
2023-08-30T13:36:26.637Z,7.32
2023-08-30T13:38:54.384Z,4.70
2023-08-30T13:41:21.575Z,9.35
2023-08-30T13:43:48.646Z,6.40
2023-08-30T13:46:15.769Z,5.93
2023-08-30T13:48:43.060Z,4.22
2023-08-30T13:51:10.098Z,4.82
2023-08-30T13:53:37.161Z,5.95
2023-08-30T13:56:04.712Z,4.65
2023-08-30T13:58:31.768Z,6.13
2023-08-30T14:00:59.089Z,5.70
2023-08-30T14:03:26.225Z,4.30
2023-08-30T14:05:53.371Z,18.10
2023-08-30T14:08:20.443Z,10.00
2023-08-30T14:10:47.651Z,3.88
2023-08-30T14:13:14.797Z,5.82
2023-08-30T14:15:43.245Z,4.80
2023-08-30T14:18:10.751Z,4.60
2023-08-30T14:20:38.130Z,4.43
2023-08-30T14:23:05.289Z,13.95
2023-08-30T14:25:32.362Z,11.30
2023-08-30T14:28:00.763Z,23.95
2023-08-30T14:30:27.825Z,46.15
2023-08-30T14:32:54.902Z,63.25
2023-08-30T14:35:22.202Z,19.38
2023-08-30T14:37:49.267Z,10.75
2023-08-30T14:40:16.417Z,5.53
2023-08-30T14:42:43.614Z,5.78
2023-08-30T14:45:10.766Z,4.90
2023-08-30T14:47:38.716Z,3.83
2023-08-30T14:50:06.235Z,5.38
2023-08-30T14:52:33.323Z,4.30
2023-08-30T14:55:00.529Z,8.70
2023-08-30T14:57:27.787Z,9.73
2023-08-30T14:59:54.900Z,14.40
2023-08-30T15:02:22.036Z,12.90
2023-08-30T15:04:49.201Z,12.23
2023-08-30T15:07:16.272Z,11.45
2023-08-30T15:09:43.378Z,14.52
2023-08-30T15:12:10.481Z,11.82
2023-08-30T15:14:37.564Z,13.48
2023-08-30T15:17:05.230Z,9.75
2023-08-30T15:19:32.328Z,11.57
2023-08-30T15:21:59.510Z,9.95
2023-08-30T15:24:26.660Z,8.00
2023-08-30T15:26:53.646Z,11.00
2023-08-30T15:29:20.727Z,11.75
2023-08-30T15:31:52.837Z,9.63
2023-08-30T15:34:20.199Z,9.05
2023-08-30T15:36:47.828Z,8.02
2023-08-30T15:39:15.974Z,5.60
2023-08-30T15:41:43.001Z,9.73
2023-08-30T15:44:10.073Z,8.48
2023-08-30T15:46:39.453Z,8.10
2023-08-30T15:49:06.930Z,11.90
2023-08-30T15:51:34.069Z,6.47
2023-08-30T15:54:01.663Z,9.73
2023-08-30T15:56:28.685Z,6.55
2023-08-30T15:58:56.328Z,11.88
2023-08-30T16:01:23.604Z,5.25
2023-08-30T16:03:50.964Z,6.18
2023-08-30T16:06:18.244Z,7.63
2023-08-30T16:08:45.475Z,6.00
2023-08-30T16:11:12.640Z,7.07
2023-08-30T16:13:40.002Z,7.55
2023-08-30T16:16:07.103Z,7.40
2023-08-30T16:18:34.226Z,7.40
2023-08-30T16:21:01.490Z,8.10
2023-08-30T16:23:29.631Z,11.88
2023-08-30T16:26:00.119Z,10.40
2023-08-30T16:28:27.528Z,8.93
2023-08-30T16:31:00.647Z,9.43
2023-08-30T16:33:28.227Z,8.70
2023-08-30T16:35:55.520Z,9.95
2023-08-30T16:38:22.727Z,6.63
2023-08-30T16:40:49.662Z,7.63
2023-08-30T16:43:16.824Z,8.55
2023-08-30T16:45:43.893Z,7.13
2023-08-30T16:48:13.328Z,9.00
2023-08-30T16:50:40.531Z,6.45
2023-08-30T16:53:10.275Z,7.40
2023-08-30T16:55:37.414Z,7.93
2023-08-30T16:58:04.929Z,12.43
2023-08-30T17:00:33.077Z,6.72
2023-08-30T17:03:00.479Z,12.02
2023-08-30T17:05:28.278Z,12.45
2023-08-30T17:07:55.464Z,7.40
2023-08-30T17:10:26.010Z,9.85
2023-08-30T17:12:57.873Z,14.50
2023-08-30T17:15:25.574Z,12.52
2023-08-30T17:17:54.341Z,7.82
2023-08-30T17:20:21.521Z,11.75
2023-08-30T17:22:48.620Z,7.75
2023-08-30T17:25:15.721Z,9.48
2023-08-30T17:27:43.969Z,11.85
2023-08-30T17:30:14.644Z,13.10
2023-08-30T17:32:41.915Z,12.23
2023-08-30T17:35:09.467Z,13.25
2023-08-30T17:37:36.551Z,19.20
2023-08-30T17:40:06.301Z,17.08
2023-08-30T17:42:33.511Z,18.48
2023-08-30T17:45:01.178Z,22.08
2023-08-30T17:47:31.793Z,35.13
2023-08-30T17:49:58.924Z,27.13
2023-08-30T17:52:25.994Z,23.65
2023-08-30T17:54:53.957Z,24.15
2023-08-30T17:57:21.163Z,28.85
2023-08-30T17:59:48.310Z,32.92
2023-08-30T18:02:15.403Z,31.25
2023-08-30T18:04:42.711Z,37.55
2023-08-30T18:07:09.826Z,31.92
2023-08-30T18:09:38.778Z,31.95
2023-08-30T18:12:06.544Z,33.17
2023-08-30T18:14:33.856Z,29.02
2023-08-30T18:17:00.938Z,26.67
2023-08-30T18:19:28.153Z,26.98
2023-08-30T18:21:55.266Z,26.15
2023-08-30T18:24:24.748Z,23.55
2023-08-30T18:26:52.268Z,23.23
2023-08-30T18:29:20.947Z,21.60
2023-08-30T18:31:49.134Z,21.10
2023-08-30T18:34:17.388Z,22.20
2023-08-30T18:36:45.953Z,16.23
2023-08-30T18:39:16.914Z,16.77
2023-08-30T18:41:44.466Z,12.68
2023-08-30T18:44:11.569Z,16.23
2023-08-30T18:46:38.963Z,11.23
2023-08-30T18:49:06.097Z,12.63
2023-08-30T18:51:33.633Z,16.30
2023-08-30T18:54:03.628Z,19.02
2023-08-30T18:56:30.914Z,16.15
2023-08-30T18:58:58.257Z,15.20
2023-08-30T19:01:29.393Z,15.02
2023-08-30T19:03:56.491Z,16.77
2023-08-30T19:06:23.541Z,14.10
2023-08-30T19:08:52.099Z,14.32
2023-08-30T19:11:19.633Z,11.70
2023-08-30T19:13:47.726Z,16.13
2023-08-30T19:16:20.508Z,15.77
2023-08-30T19:18:47.899Z,15.23
2023-08-30T19:21:15.874Z,14.13
2023-08-30T19:23:45.661Z,10.95
2023-08-30T19:26:13.192Z,11.23
2023-08-30T19:28:40.372Z,9.05
2023-08-30T19:31:07.457Z,8.95
2023-08-30T19:33:35.169Z,9.50
2023-08-30T19:36:02.219Z,8.77
2023-08-30T19:38:29.809Z,11.73
2023-08-30T19:40:57.031Z,11.55
2023-08-30T19:43:24.273Z,7.90
2023-08-30T19:46:05.584Z,8.85
2023-08-30T19:48:32.885Z,8.85
2023-08-30T19:51:00.181Z,8.18
2023-08-30T19:53:28.207Z,10.70
2023-08-30T19:55:56.927Z,7.35
2023-08-30T19:58:24.191Z,8.27
2023-08-30T20:00:51.293Z,8.52
2023-08-30T20:03:19.058Z,8.43
2023-08-30T20:05:53.016Z,6.72
2023-08-30T20:08:20.232Z,7.65
2023-08-30T20:10:47.941Z,7.80
2023-08-30T20:13:14.977Z,8.13
2023-08-30T20:15:42.435Z,7.80
2023-08-30T20:18:11.004Z,8.07
2023-08-30T20:20:42.494Z,6.82
2023-08-30T20:23:09.818Z,7.60
2023-08-30T20:25:37.606Z,8.40
2023-08-30T20:28:05.102Z,7.53
2023-08-30T20:30:32.277Z,6.20
2023-08-30T20:32:59.353Z,6.82
2023-08-30T20:35:26.710Z,7.65
2023-08-30T20:37:53.747Z,6.38
2023-08-30T20:40:20.928Z,6.45
2023-08-30T20:42:48.056Z,5.30
2023-08-30T20:45:15.388Z,6.47
2023-08-30T20:47:42.472Z,8.10
2023-08-30T20:50:10.988Z,6.75
2023-08-30T20:52:38.188Z,7.85
2023-08-30T20:55:07.876Z,6.35
2023-08-30T20:57:35.681Z,5.70
2023-08-30T21:00:03.298Z,6.80
2023-08-30T21:02:36.481Z,6.10
2023-08-30T21:05:04.815Z,6.63
2023-08-30T21:07:32.373Z,8.10
2023-08-30T21:09:59.978Z,6.20
2023-08-30T21:12:27.141Z,7.30
2023-08-30T21:14:54.158Z,6.90
2023-08-30T21:17:21.123Z,6.32
2023-08-30T21:19:48.139Z,6.93
2023-08-30T21:22:15.347Z,6.05
2023-08-30T21:24:42.367Z,5.75
2023-08-30T21:27:09.555Z,7.45
2023-08-30T21:29:36.647Z,6.82
2023-08-30T21:32:04.939Z,7.45
2023-08-30T21:34:32.393Z,7.78
2023-08-30T21:36:59.530Z,6.90
2023-08-30T21:39:26.759Z,7.20
2023-08-30T21:41:53.735Z,7.25
2023-08-30T21:44:20.864Z,6.80
2023-08-30T21:46:47.930Z,7.72
2023-08-30T21:49:15.692Z,9.25
2023-08-30T21:51:42.831Z,5.93
2023-08-30T21:54:09.929Z,7.25
2023-08-30T21:56:38.391Z,6.65
2023-08-30T21:59:05.586Z,6.25
2023-08-30T22:01:32.617Z,12.90
2023-08-30T22:04:00.609Z,7.57
2023-08-30T22:06:27.834Z,10.50
2023-08-30T22:08:55.001Z,11.20
2023-08-30T22:11:22.262Z,10.63
2023-08-30T22:13:49.567Z,8.48
2023-08-30T22:16:16.853Z,11.45
2023-08-30T22:18:47.912Z,10.57
2023-08-30T22:21:17.198Z,11.75
2023-08-30T22:23:44.660Z,15.40
2023-08-30T22:26:11.712Z,12.02
2023-08-30T22:28:39.881Z,14.85
2023-08-30T22:31:07.650Z,9.93
2023-08-30T22:33:37.991Z,13.75
2023-08-30T22:36:05.805Z,13.80
2023-08-30T22:38:33.381Z,10.45
2023-08-30T22:41:03.571Z,13.20
2023-08-30T22:43:30.723Z,12.95
2023-08-30T22:46:00.805Z,13.98
2023-08-30T22:48:29.365Z,16.80
2023-08-30T22:50:57.293Z,13.57
2023-08-30T22:53:24.415Z,14.45
2023-08-30T22:55:51.511Z,13.18
2023-08-30T22:58:19.126Z,14.38
2023-08-30T23:00:46.703Z,14.40
2023-08-30T23:03:14.170Z,12.27
2023-08-30T23:05:41.606Z,13.60
2023-08-30T23:08:08.654Z,14.57
2023-08-30T23:10:35.694Z,11.82
2023-08-30T23:13:03.560Z,10.95
2023-08-30T23:15:30.748Z,10.05
2023-08-30T23:17:58.051Z,11.02
2023-08-30T23:20:25.373Z,10.30
2023-08-30T23:22:52.781Z,10.82
2023-08-30T23:25:20.082Z,10.77
2023-08-30T23:27:47.191Z,10.82
2023-08-30T23:30:14.557Z,11.57
2023-08-30T23:32:41.681Z,11.13
2023-08-30T23:35:09.145Z,8.48
2023-08-30T23:37:36.336Z,10.02
2023-08-30T23:40:08.323Z,9.57
2023-08-30T23:42:35.491Z,7.38
2023-08-30T23:45:02.565Z,8.15
2023-08-30T23:47:31.605Z,10.10
2023-08-30T23:49:59.096Z,9.45
2023-08-30T23:52:26.624Z,8.02
2023-08-30T23:54:53.711Z,7.57
2023-08-30T23:57:20.694Z,9.73
2023-08-30T23:59:47.681Z,10.30
